Aeroporto :
LOGIN :

Iscrizione | Disclaimer

   EN    FR    IT 

 










Sommario :    VFR   VFR Marginale   IFR   IFR Intensivo   IFR Molto Intensivo
Visibilità : 
Base nubi : 
>= 8 km
>= 3000ft
5 / 8 km
1000 / 3000 ft
1500m / 5 km
500 / 1000 ft
800 / 1500m
200 / 500 ft
< 800m
< 200 ft
Simboli :   Temporali  Nebbia  Neve Forte  Precipitazioni Forti  Vento > 20 kt
SIGMETs :   Varie  Temporali  Ghiacco  Turbolenza  Onda orograficha  Ceneri Vulcaniche






- Altitudine del aeroporto : 21 ft
- Codice IATA : VST


ESOW - Stockholm Västerås

ULTIMO METAR :
  • 260350Z 01002KT CAVOK 07/05 Q1033

METARs OBSOLETI :
  • 260320Z AUTO VRB02KT 9999 NCD 06/04 Q1032
  • 260250Z AUTO 36004KT 9999 SCT061/// 05/04 Q1032
  • 260220Z AUTO 01004KT 6000 NCD 04/03 Q1032
  • 260150Z AUTO 01003KT 9999 NCD 05/04 Q1032
  • 260120Z AUTO 33002KT 9999 NCD 06/04 Q1032
  • 260050Z AUTO 02003KT 9999 NCD 06/04 Q1032

TAF TAF ESOW
Valido dal 26 a 04 ore il 26 a 12 ore UTC


260330Z 2604/2612 VRB02KT CAVOK



MetMap, La meteo Aeronautica in un colpo d'occhio ! - Copyright ORBIFLY Dicembre 2007 - Disclaimer

ORBIFLY MET'MAP TEAM :

Programmazione e sviluppo : Alexandra Zaïnal
Concezione : Baudouin d'Aumeries
Aiuto per la programmazione : Marc-Olivier Méhu
Supporto tecnico e logistico : Manuel Goepfert
Aiuto per la traduzione : Arnaldo La Scala

Contatto : metmap@orbifly.com




FONTI E CREDITI :

   NOAA